sensor_id;sensor_type;location;lat;lon;timestamp;temperature;humidity
28460;DHT22;32528;45.712;9.192;2023-02-24T00:00:52;11.70;98.90
28460;DHT22;32528;45.712;9.192;2023-02-24T00:02:54;11.70;98.80
28460;DHT22;32528;45.712;9.192;2023-02-24T00:04:55;11.70;98.90
28460;DHT22;32528;45.712;9.192;2023-02-24T00:06:56;11.70;98.90
28460;DHT22;32528;45.712;9.192;2023-02-24T00:08:56;11.70;99.00
28460;DHT22;32528;45.712;9.192;2023-02-24T00:10:57;11.70;98.90
28460;DHT22;32528;45.712;9.192;2023-02-24T00:12:58;11.70;98.90
28460;DHT22;32528;45.712;9.192;2023-02-24T00:14:59;11.70;98.90
28460;DHT22;32528;45.712;9.192;2023-02-24T00:17:00;11.60;98.90
28460;DHT22;32528;45.712;9.192;2023-02-24T00:19:01;11.60;99.20
28460;DHT22;32528;45.712;9.192;2023-02-24T00:21:08;11.60;99.20
28460;DHT22;32528;45.712;9.192;2023-02-24T00:23:10;11.60;99.30
28460;DHT22;32528;45.712;9.192;2023-02-24T00:25:11;11.50;99.30
28460;DHT22;32528;45.712;9.192;2023-02-24T00:27:14;11.50;99.60
28460;DHT22;32528;45.712;9.192;2023-02-24T00:29:15;11.50;99.70
28460;DHT22;32528;45.712;9.192;2023-02-24T00:31:16;11.50;99.80
28460;DHT22;32528;45.712;9.192;2023-02-24T00:33:20;11.50;99.70
28460;DHT22;32528;45.712;9.192;2023-02-24T00:35:23;11.50;99.80
28460;DHT22;32528;45.712;9.192;2023-02-24T00:37:24;11.40;99.90
28460;DHT22;32528;45.712;9.192;2023-02-24T00:39:26;11.40;99.90
28460;DHT22;32528;45.712;9.192;2023-02-24T00:41:37;11.30;99.90
28460;DHT22;32528;45.712;9.192;2023-02-24T00:43:40;11.30;99.90
28460;DHT22;32528;45.712;9.192;2023-02-24T00:45:46;11.20;99.90
28460;DHT22;32528;45.712;9.192;2023-02-24T00:47:46;11.20;99.90
28460;DHT22;32528;45.712;9.192;2023-02-24T00:49:47;11.10;99.90
28460;DHT22;32528;45.712;9.192;2023-02-24T00:51:49;11.20;99.90
28460;DHT22;32528;45.712;9.192;2023-02-24T00:53:55;11.20;99.90
28460;DHT22;32528;45.712;9.192;2023-02-24T00:55:59;11.10;99.90
28460;DHT22;32528;45.712;9.192;2023-02-24T00:58:04;11.10;99.90
28460;DHT22;32528;45.712;9.192;2023-02-24T01:00:07;11.10;99.90
28460;DHT22;32528;45.712;9.192;2023-02-24T01:02:13;11.00;99.90
28460;DHT22;32528;45.712;9.192;2023-02-24T01:04:14;11.00;99.90
28460;DHT22;32528;45.712;9.192;2023-02-24T01:06:19;11.00;99.90
28460;DHT22;32528;45.712;9.192;2023-02-24T01:08:20;11.00;99.90
28460;DHT22;32528;45.712;9.192;2023-02-24T01:10:22;11.00;99.90
28460;DHT22;32528;45.712;9.192;2023-02-24T01:12:23;11.00;99.90
28460;DHT22;32528;45.712;9.192;2023-02-24T01:14:52;11.00;99.90
28460;DHT22;32528;45.712;9.192;2023-02-24T01:16:53;11.00;99.90
28460;DHT22;32528;45.712;9.192;2023-02-24T01:18:54;11.00;99.90
28460;DHT22;32528;45.712;9.192;2023-02-24T01:20:57;11.00;99.90
28460;DHT22;32528;45.712;9.192;2023-02-24T01:22:58;11.00;99.90
28460;DHT22;32528;45.712;9.192;2023-02-24T01:24:59;11.00;99.90
28460;DHT22;32528;45.712;9.192;2023-02-24T01:27:00;11.00;99.90
28460;DHT22;32528;45.712;9.192;2023-02-24T01:29:01;11.00;99.90
28460;DHT22;32528;45.712;9.192;2023-02-24T01:31:04;11.00;99.90
28460;DHT22;32528;45.712;9.192;2023-02-24T01:33:05;11.00;99.90
28460;DHT22;32528;45.712;9.192;2023-02-24T01:35:08;11.00;99.90
28460;DHT22;32528;45.712;9.192;2023-02-24T01:37:09;11.00;99.90
28460;DHT22;32528;45.712;9.192;2023-02-24T01:39:11;10.90;99.90
28460;DHT22;32528;45.712;9.192;2023-02-24T01:41:15;10.80;99.90
28460;DHT22;32528;45.712;9.192;2023-02-24T01:43:16;10.80;99.90
28460;DHT22;32528;45.712;9.192;2023-02-24T01:45:20;10.80;99.90
28460;DHT22;32528;45.712;9.192;2023-02-24T01:47:22;10.80;99.90
28460;DHT22;32528;45.712;9.192;2023-02-24T01:49:33;10.80;99.90
28460;DHT22;32528;45.712;9.192;2023-02-24T01:51:35;10.80;99.90
28460;DHT22;32528;45.712;9.192;2023-02-24T01:53:38;10.80;99.90
28460;DHT22;32528;45.712;9.192;2023-02-24T01:55:44;10.80;99.90
28460;DHT22;32528;45.712;9.192;2023-02-24T01:57:50;10.80;99.90
28460;DHT22;32528;45.712;9.192;2023-02-24T01:59:53;10.80;99.90
28460;DHT22;32528;45.712;9.192;2023-02-24T02:02:03;10.90;99.90
28460;DHT22;32528;45.712;9.192;2023-02-24T02:04:32;10.80;99.90
28460;DHT22;32528;45.712;9.192;2023-02-24T02:06:34;10.80;99.90
28460;DHT22;32528;45.712;9.192;2023-02-24T02:08:38;10.80;99.90
28460;DHT22;32528;45.712;9.192;2023-02-24T02:10:40;10.80;99.90
28460;DHT22;32528;45.712;9.192;2023-02-24T02:12:44;10.80;99.90
28460;DHT22;32528;45.712;9.192;2023-02-24T02:14:48;10.80;99.90
28460;DHT22;32528;45.712;9.192;2023-02-24T02:20:17;10.80;99.90
28460;DHT22;32528;45.712;9.192;2023-02-24T02:27:26;10.70;99.90
28460;DHT22;32528;45.712;9.192;2023-02-24T02:32:30;10.70;99.90
28460;DHT22;32528;45.712;9.192;2023-02-24T02:34:55;10.80;99.90
28460;DHT22;32528;45.712;9.192;2023-02-24T02:37:23;10.70;99.90
28460;DHT22;32528;45.712;9.192;2023-02-24T02:41:57;10.80;99.90
28460;DHT22;32528;45.712;9.192;2023-02-24T02:46:15;10.80;99.90
28460;DHT22;32528;45.712;9.192;2023-02-24T02:48:29;10.90;99.90
28460;DHT22;32528;45.712;9.192;2023-02-24T02:52:50;11.00;99.90
28460;DHT22;32528;45.712;9.192;2023-02-24T02:55:02;11.00;99.90
28460;DHT22;32528;45.712;9.192;2023-02-24T02:57:28;11.00;99.90
28460;DHT22;32528;45.712;9.192;2023-02-24T02:59:30;11.00;99.90
28460;DHT22;32528;45.712;9.192;2023-02-24T03:01:35;11.00;99.90
28460;DHT22;32528;45.712;9.192;2023-02-24T03:03:43;11.10;99.90
28460;DHT22;32528;45.712;9.192;2023-02-24T03:05:51;11.10;99.90
28460;DHT22;32528;45.712;9.192;2023-02-24T03:07:57;11.10;99.90
28460;DHT22;32528;45.712;9.192;2023-02-24T03:10:02;11.00;99.90
28460;DHT22;32528;45.712;9.192;2023-02-24T03:12:15;11.00;99.90
28460;DHT22;32528;45.712;9.192;2023-02-24T03:14:18;11.00;99.90
28460;DHT22;32528;45.712;9.192;2023-02-24T03:16:23;11.00;99.90
28460;DHT22;32528;45.712;9.192;2023-02-24T03:18:32;10.90;99.90
28460;DHT22;32528;45.712;9.192;2023-02-24T03:20:38;11.00;99.90
28460;DHT22;32528;45.712;9.192;2023-02-24T03:23:06;11.00;99.90
28460;DHT22;32528;45.712;9.192;2023-02-24T03:25:06;11.00;99.90
28460;DHT22;32528;45.712;9.192;2023-02-24T03:27:22;11.00;99.90
28460;DHT22;32528;45.712;9.192;2023-02-24T03:29:49;11.00;99.90
28460;DHT22;32528;45.712;9.192;2023-02-24T03:32:28;11.00;99.90
28460;DHT22;32528;45.712;9.192;2023-02-24T03:35:05;11.00;99.90
28460;DHT22;32528;45.712;9.192;2023-02-24T03:37:08;11.00;99.90
28460;DHT22;32528;45.712;9.192;2023-02-24T03:39:10;11.10;99.90
28460;DHT22;32528;45.712;9.192;2023-02-24T03:41:18;11.00;99.90
28460;DHT22;32528;45.712;9.192;2023-02-24T03:43:29;11.00;99.90
28460;DHT22;32528;45.712;9.192;2023-02-24T03:45:37;11.00;99.90
28460;DHT22;32528;45.712;9.192;2023-02-24T03:47:40;11.00;99.90
28460;DHT22;32528;45.712;9.192;2023-02-24T03:49:42;10.90;99.90
28460;DHT22;32528;45.712;9.192;2023-02-24T03:59:58;11.10;99.90
28460;DHT22;32528;45.712;9.192;2023-02-24T04:02:29;11.10;99.90
28460;DHT22;32528;45.712;9.192;2023-02-24T04:04:44;11.10;99.90
28460;DHT22;32528;45.712;9.192;2023-02-24T04:09:42;10.90;99.90
28460;DHT22;32528;45.712;9.192;2023-02-24T04:14:20;10.80;99.90
28460;DHT22;32528;45.712;9.192;2023-02-24T04:16:35;10.80;99.90
28460;DHT22;32528;45.712;9.192;2023-02-24T04:18:40;10.70;99.90
28460;DHT22;32528;45.712;9.192;2023-02-24T04:20:41;10.70;99.90
28460;DHT22;32528;45.712;9.192;2023-02-24T04:22:52;10.60;99.90
28460;DHT22;32528;45.712;9.192;2023-02-24T04:24:58;10.60;99.90
28460;DHT22;32528;45.712;9.192;2023-02-24T04:27:02;10.70;99.90
28460;DHT22;32528;45.712;9.192;2023-02-24T04:29:09;10.70;99.90
28460;DHT22;32528;45.712;9.192;2023-02-24T04:31:18;10.70;99.90
28460;DHT22;32528;45.712;9.192;2023-02-24T04:33:21;10.70;99.90
28460;DHT22;32528;45.712;9.192;2023-02-24T04:35:25;10.80;99.90
28460;DHT22;32528;45.712;9.192;2023-02-24T04:37:30;10.80;99.90
28460;DHT22;32528;45.712;9.192;2023-02-24T04:39:34;10.80;99.90
28460;DHT22;32528;45.712;9.192;2023-02-24T04:41:46;10.70;99.90
28460;DHT22;32528;45.712;9.192;2023-02-24T04:43:50;10.70;99.90
28460;DHT22;32528;45.712;9.192;2023-02-24T04:45:50;10.70;99.90
28460;DHT22;32528;45.712;9.192;2023-02-24T04:47:53;10.80;99.90
28460;DHT22;32528;45.712;9.192;2023-02-24T04:50:00;10.90;99.90
28460;DHT22;32528;45.712;9.192;2023-02-24T04:52:00;10.90;99.90
28460;DHT22;32528;45.712;9.192;2023-02-24T04:54:02;10.90;99.90
28460;DHT22;32528;45.712;9.192;2023-02-24T04:56:04;10.90;99.90
28460;DHT22;32528;45.712;9.192;2023-02-24T04:58:14;11.00;99.90
28460;DHT22;32528;45.712;9.192;2023-02-24T05:00:18;10.90;99.90
28460;DHT22;32528;45.712;9.192;2023-02-24T05:02:22;11.00;99.90
28460;DHT22;32528;45.712;9.192;2023-02-24T05:04:23;11.00;99.90
28460;DHT22;32528;45.712;9.192;2023-02-24T05:06:25;11.00;99.90
28460;DHT22;32528;45.712;9.192;2023-02-24T05:08:28;11.00;99.90
28460;DHT22;32528;45.712;9.192;2023-02-24T05:10:35;10.90;99.90
28460;DHT22;32528;45.712;9.192;2023-02-24T05:12:36;10.90;99.90
28460;DHT22;32528;45.712;9.192;2023-02-24T05:14:39;10.90;99.90
28460;DHT22;32528;45.712;9.192;2023-02-24T05:16:45;10.80;99.90
28460;DHT22;32528;45.712;9.192;2023-02-24T05:18:46;10.90;99.90
28460;DHT22;32528;45.712;9.192;2023-02-24T05:20:49;10.90;99.90
28460;DHT22;32528;45.712;9.192;2023-02-24T05:23:09;10.90;99.90
28460;DHT22;32528;45.712;9.192;2023-02-24T05:25:10;10.80;99.90
28460;DHT22;32528;45.712;9.192;2023-02-24T05:27:13;10.80;99.90
28460;DHT22;32528;45.712;9.192;2023-02-24T05:29:16;10.80;99.90
28460;DHT22;32528;45.712;9.192;2023-02-24T05:31:21;10.80;99.90
28460;DHT22;32528;45.712;9.192;2023-02-24T05:33:28;10.80;99.90
28460;DHT22;32528;45.712;9.192;2023-02-24T05:35:29;10.80;99.90
28460;DHT22;32528;45.712;9.192;2023-02-24T05:37:36;10.80;99.90
28460;DHT22;32528;45.712;9.192;2023-02-24T05:39:37;10.80;99.90
28460;DHT22;32528;45.712;9.192;2023-02-24T05:41:41;10.80;99.90
28460;DHT22;32528;45.712;9.192;2023-02-24T05:43:48;10.80;99.90
28460;DHT22;32528;45.712;9.192;2023-02-24T05:45:55;10.80;99.90
28460;DHT22;32528;45.712;9.192;2023-02-24T05:47:56;10.80;99.90
28460;DHT22;32528;45.712;9.192;2023-02-24T05:49:57;10.70;99.90
28460;DHT22;32528;45.712;9.192;2023-02-24T05:52:00;10.70;99.90
28460;DHT22;32528;45.712;9.192;2023-02-24T05:54:02;10.70;99.90
28460;DHT22;32528;45.712;9.192;2023-02-24T05:56:04;10.80;99.90
28460;DHT22;32528;45.712;9.192;2023-02-24T05:58:05;10.90;99.90
28460;DHT22;32528;45.712;9.192;2023-02-24T06:00:08;10.80;99.90
28460;DHT22;32528;45.712;9.192;2023-02-24T06:02:17;10.80;99.90
28460;DHT22;32528;45.712;9.192;2023-02-24T06:04:26;10.80;99.90
28460;DHT22;32528;45.712;9.192;2023-02-24T06:06:40;10.80;99.90
28460;DHT22;32528;45.712;9.192;2023-02-24T06:08:41;10.70;99.90
28460;DHT22;32528;45.712;9.192;2023-02-24T06:10:49;10.60;99.90
28460;DHT22;32528;45.712;9.192;2023-02-24T06:12:51;10.60;99.90
28460;DHT22;32528;45.712;9.192;2023-02-24T06:14:51;10.50;99.90
28460;DHT22;32528;45.712;9.192;2023-02-24T06:16:52;10.50;99.90
28460;DHT22;32528;45.712;9.192;2023-02-24T06:18:53;10.50;99.90
28460;DHT22;32528;45.712;9.192;2023-02-24T06:20:56;10.50;99.90
28460;DHT22;32528;45.712;9.192;2023-02-24T06:22:56;10.50;99.90
28460;DHT22;32528;45.712;9.192;2023-02-24T06:24:57;10.50;99.90
28460;DHT22;32528;45.712;9.192;2023-02-24T06:26:58;10.50;99.90
28460;DHT22;32528;45.712;9.192;2023-02-24T06:29:16;10.50;99.90
28460;DHT22;32528;45.712;9.192;2023-02-24T06:31:17;10.50;99.90
28460;DHT22;32528;45.712;9.192;2023-02-24T06:33:17;10.50;99.90
28460;DHT22;32528;45.712;9.192;2023-02-24T06:35:19;10.60;99.90
28460;DHT22;32528;45.712;9.192;2023-02-24T06:37:21;10.60;99.90
28460;DHT22;32528;45.712;9.192;2023-02-24T06:39:24;10.60;99.90
28460;DHT22;32528;45.712;9.192;2023-02-24T06:41:26;10.60;99.90
28460;DHT22;32528;45.712;9.192;2023-02-24T06:43:30;10.70;99.90
28460;DHT22;32528;45.712;9.192;2023-02-24T06:45:30;10.70;99.90
28460;DHT22;32528;45.712;9.192;2023-02-24T06:47:31;10.60;99.90
28460;DHT22;32528;45.712;9.192;2023-02-24T06:49:32;10.60;99.90
28460;DHT22;32528;45.712;9.192;2023-02-24T06:51:33;10.60;99.90
28460;DHT22;32528;45.712;9.192;2023-02-24T06:53:34;10.80;99.90
28460;DHT22;32528;45.712;9.192;2023-02-24T06:55:35;10.80;99.90
28460;DHT22;32528;45.712;9.192;2023-02-24T06:57:36;10.70;99.90
28460;DHT22;32528;45.712;9.192;2023-02-24T06:59:37;10.70;99.90
28460;DHT22;32528;45.712;9.192;2023-02-24T07:01:38;10.90;99.90
28460;DHT22;32528;45.712;9.192;2023-02-24T07:03:44;10.90;99.90
28460;DHT22;32528;45.712;9.192;2023-02-24T07:06:08;10.90;99.90
28460;DHT22;32528;45.712;9.192;2023-02-24T07:08:25;11.00;99.90
28460;DHT22;32528;45.712;9.192;2023-02-24T07:10:26;11.00;99.90
28460;DHT22;32528;45.712;9.192;2023-02-24T07:12:27;11.00;99.90
28460;DHT22;32528;45.712;9.192;2023-02-24T07:14:29;11.00;99.90
28460;DHT22;32528;45.712;9.192;2023-02-24T07:16:42;11.00;99.90
28460;DHT22;32528;45.712;9.192;2023-02-24T07:18:46;11.00;99.90
28460;DHT22;32528;45.712;9.192;2023-02-24T07:20:48;11.00;99.90
28460;DHT22;32528;45.712;9.192;2023-02-24T07:22:49;11.00;99.90
28460;DHT22;32528;45.712;9.192;2023-02-24T07:24:49;11.20;99.90
28460;DHT22;32528;45.712;9.192;2023-02-24T07:27:01;11.20;99.90
28460;DHT22;32528;45.712;9.192;2023-02-24T07:29:03;11.20;99.90
28460;DHT22;32528;45.712;9.192;2023-02-24T07:31:11;11.20;99.90
28460;DHT22;32528;45.712;9.192;2023-02-24T07:33:12;11.30;99.90
28460;DHT22;32528;45.712;9.192;2023-02-24T07:35:14;11.30;99.90
28460;DHT22;32528;45.712;9.192;2023-02-24T07:37:14;11.40;99.90
28460;DHT22;32528;45.712;9.192;2023-02-24T07:39:16;11.40;99.90
28460;DHT22;32528;45.712;9.192;2023-02-24T07:41:20;11.40;99.90
28460;DHT22;32528;45.712;9.192;2023-02-24T07:43:21;11.40;99.90
28460;DHT22;32528;45.712;9.192;2023-02-24T07:45:22;11.30;99.90
28460;DHT22;32528;45.712;9.192;2023-02-24T07:47:24;11.30;99.90
28460;DHT22;32528;45.712;9.192;2023-02-24T07:49:26;11.30;99.90
28460;DHT22;32528;45.712;9.192;2023-02-24T07:51:29;11.30;99.90
28460;DHT22;32528;45.712;9.192;2023-02-24T07:53:31;11.30;99.90
28460;DHT22;32528;45.712;9.192;2023-02-24T07:55:34;11.30;99.90
28460;DHT22;32528;45.712;9.192;2023-02-24T07:57:36;11.40;99.90
28460;DHT22;32528;45.712;9.192;2023-02-24T07:59:37;11.40;99.90
28460;DHT22;32528;45.712;9.192;2023-02-24T08:01:37;11.50;99.90
28460;DHT22;32528;45.712;9.192;2023-02-24T08:03:38;11.60;99.90
28460;DHT22;32528;45.712;9.192;2023-02-24T08:05:40;11.70;99.90
28460;DHT22;32528;45.712;9.192;2023-02-24T08:07:44;11.70;99.90
28460;DHT22;32528;45.712;9.192;2023-02-24T08:09:49;11.70;99.90
28460;DHT22;32528;45.712;9.192;2023-02-24T08:12:16;11.70;99.90
28460;DHT22;32528;45.712;9.192;2023-02-24T08:14:25;11.80;99.90
28460;DHT22;32528;45.712;9.192;2023-02-24T08:16:26;11.90;99.90
28460;DHT22;32528;45.712;9.192;2023-02-24T08:18:38;11.90;99.90
28460;DHT22;32528;45.712;9.192;2023-02-24T08:20:39;11.90;99.90
28460;DHT22;32528;45.712;9.192;2023-02-24T08:22:53;11.80;99.90
28460;DHT22;32528;45.712;9.192;2023-02-24T08:24:55;11.80;99.90
28460;DHT22;32528;45.712;9.192;2023-02-24T08:27:00;11.80;99.90
28460;DHT22;32528;45.712;9.192;2023-02-24T08:29:04;11.90;99.90
28460;DHT22;32528;45.712;9.192;2023-02-24T08:31:07;12.00;99.90
28460;DHT22;32528;45.712;9.192;2023-02-24T08:33:10;12.00;99.90
28460;DHT22;32528;45.712;9.192;2023-02-24T08:35:18;12.10;99.90
28460;DHT22;32528;45.712;9.192;2023-02-24T08:37:19;12.20;99.90
28460;DHT22;32528;45.712;9.192;2023-02-24T08:39:21;12.30;99.90
28460;DHT22;32528;45.712;9.192;2023-02-24T08:41:23;12.40;99.90
28460;DHT22;32528;45.712;9.192;2023-02-24T08:43:44;12.50;99.90
28460;DHT22;32528;45.712;9.192;2023-02-24T08:45:52;12.50;99.90
28460;DHT22;32528;45.712;9.192;2023-02-24T08:47:56;12.50;99.90
28460;DHT22;32528;45.712;9.192;2023-02-24T08:50:00;12.60;99.90
28460;DHT22;32528;45.712;9.192;2023-02-24T08:52:01;12.60;99.90
28460;DHT22;32528;45.712;9.192;2023-02-24T08:54:28;12.60;99.90
28460;DHT22;32528;45.712;9.192;2023-02-24T08:56:31;12.70;99.90
28460;DHT22;32528;45.712;9.192;2023-02-24T08:58:42;12.70;99.90
28460;DHT22;32528;45.712;9.192;2023-02-24T09:00:46;12.70;99.90
28460;DHT22;32528;45.712;9.192;2023-02-24T09:02:49;12.80;99.90
28460;DHT22;32528;45.712;9.192;2023-02-24T09:05:00;12.90;99.90
28460;DHT22;32528;45.712;9.192;2023-02-24T09:07:04;12.90;99.90
28460;DHT22;32528;45.712;9.192;2023-02-24T09:09:17;13.00;99.90
28460;DHT22;32528;45.712;9.192;2023-02-24T09:11:21;13.00;99.90
28460;DHT22;32528;45.712;9.192;2023-02-24T09:13:22;13.00;99.90
28460;DHT22;32528;45.712;9.192;2023-02-24T09:15:22;13.00;99.90
28460;DHT22;32528;45.712;9.192;2023-02-24T09:17:27;13.00;99.90
28460;DHT22;32528;45.712;9.192;2023-02-24T09:19:49;13.00;99.90
28460;DHT22;32528;45.712;9.192;2023-02-24T09:21:51;12.90;99.90
28460;DHT22;32528;45.712;9.192;2023-02-24T09:23:51;12.90;99.90
28460;DHT22;32528;45.712;9.192;2023-02-24T09:25:52;13.00;99.90
28460;DHT22;32528;45.712;9.192;2023-02-24T09:28:04;12.90;99.90
28460;DHT22;32528;45.712;9.192;2023-02-24T09:30:09;13.00;99.90
28460;DHT22;32528;45.712;9.192;2023-02-24T09:32:25;13.00;99.90
28460;DHT22;32528;45.712;9.192;2023-02-24T09:34:28;12.90;99.90
28460;DHT22;32528;45.712;9.192;2023-02-24T09:36:30;12.90;99.90
28460;DHT22;32528;45.712;9.192;2023-02-24T09:38:45;12.90;99.90
28460;DHT22;32528;45.712;9.192;2023-02-24T09:41:23;12.90;99.90
28460;DHT22;32528;45.712;9.192;2023-02-24T09:43:39;12.90;99.90
28460;DHT22;32528;45.712;9.192;2023-02-24T09:46:07;12.90;99.90
28460;DHT22;32528;45.712;9.192;2023-02-24T09:48:20;12.90;99.90
28460;DHT22;32528;45.712;9.192;2023-02-24T09:50:30;12.90;99.90
28460;DHT22;32528;45.712;9.192;2023-02-24T09:52:50;12.90;99.90
28460;DHT22;32528;45.712;9.192;2023-02-24T09:54:52;13.00;99.90
28460;DHT22;32528;45.712;9.192;2023-02-24T09:57:16;12.90;99.90
28460;DHT22;32528;45.712;9.192;2023-02-24T09:59:29;13.00;99.90
28460;DHT22;32528;45.712;9.192;2023-02-24T10:01:55;13.10;99.90
28460;DHT22;32528;45.712;9.192;2023-02-24T10:06:17;13.10;99.90
28460;DHT22;32528;45.712;9.192;2023-02-24T10:08:28;13.20;99.90
28460;DHT22;32528;45.712;9.192;2023-02-24T10:10:33;13.20;99.90
28460;DHT22;32528;45.712;9.192;2023-02-24T10:12:36;13.20;99.90
28460;DHT22;32528;45.712;9.192;2023-02-24T10:17:23;13.30;99.90
28460;DHT22;32528;45.712;9.192;2023-02-24T10:19:28;13.30;99.90
28460;DHT22;32528;45.712;9.192;2023-02-24T10:21:33;13.30;99.90
28460;DHT22;32528;45.712;9.192;2023-02-24T10:24:15;13.50;99.90
28460;DHT22;32528;45.712;9.192;2023-02-24T10:26:46;13.70;99.90
28460;DHT22;32528;45.712;9.192;2023-02-24T10:28:55;13.90;99.90
28460;DHT22;32528;45.712;9.192;2023-02-24T10:31:19;14.00;99.90
28460;DHT22;32528;45.712;9.192;2023-02-24T10:33:33;14.10;99.90
28460;DHT22;32528;45.712;9.192;2023-02-24T10:35:38;14.20;99.90
28460;DHT22;32528;45.712;9.192;2023-02-24T10:37:38;14.30;99.60
28460;DHT22;32528;45.712;9.192;2023-02-24T10:39:39;14.50;99.30
28460;DHT22;32528;45.712;9.192;2023-02-24T10:41:49;14.70;98.80
28460;DHT22;32528;45.712;9.192;2023-02-24T10:43:57;14.90;98.90
28460;DHT22;32528;45.712;9.192;2023-02-24T10:46:01;15.00;98.50
28460;DHT22;32528;45.712;9.192;2023-02-24T10:48:23;15.00;98.30
28460;DHT22;32528;45.712;9.192;2023-02-24T10:50:40;15.10;97.60
28460;DHT22;32528;45.712;9.192;2023-02-24T10:52:45;15.10;97.50
28460;DHT22;32528;45.712;9.192;2023-02-24T10:55:06;15.10;97.40
28460;DHT22;32528;45.712;9.192;2023-02-24T10:57:27;14.80;97.90
28460;DHT22;32528;45.712;9.192;2023-02-24T10:59:47;14.80;97.50
28460;DHT22;32528;45.712;9.192;2023-02-24T11:02:18;14.70;97.30
28460;DHT22;32528;45.712;9.192;2023-02-24T11:04:37;14.60;97.40
28460;DHT22;32528;45.712;9.192;2023-02-24T11:07:12;14.30;97.40
28460;DHT22;32528;45.712;9.192;2023-02-24T11:09:25;14.20;97.90
28460;DHT22;32528;45.712;9.192;2023-02-24T11:11:33;14.20;98.00
28460;DHT22;32528;45.712;9.192;2023-02-24T11:13:59;14.10;98.20
28460;DHT22;32528;45.712;9.192;2023-02-24T11:16:19;14.10;97.70
28460;DHT22;32528;45.712;9.192;2023-02-24T11:18:46;14.10;98.00
28460;DHT22;32528;45.712;9.192;2023-02-24T11:20:53;14.00;98.10
28460;DHT22;32528;45.712;9.192;2023-02-24T11:22:55;14.10;98.20
28460;DHT22;32528;45.712;9.192;2023-02-24T11:25:02;14.20;98.00
28460;DHT22;32528;45.712;9.192;2023-02-24T11:27:04;14.30;97.90
28460;DHT22;32528;45.712;9.192;2023-02-24T11:29:16;14.40;97.70
28460;DHT22;32528;45.712;9.192;2023-02-24T11:39:06;14.70;97.20
28460;DHT22;32528;45.712;9.192;2023-02-24T11:40:57;14.90;97.00
28460;DHT22;32528;45.712;9.192;2023-02-24T11:43:08;15.10;96.70
28460;DHT22;32528;45.712;9.192;2023-02-24T11:45:31;15.20;96.50
28460;DHT22;32528;45.712;9.192;2023-02-24T11:47:43;15.20;96.30
28460;DHT22;32528;45.712;9.192;2023-02-24T11:50:02;15.30;96.60
28460;DHT22;32528;45.712;9.192;2023-02-24T11:52:09;15.60;96.10
28460;DHT22;32528;45.712;9.192;2023-02-24T11:54:14;15.70;95.90
28460;DHT22;32528;45.712;9.192;2023-02-24T11:56:29;15.60;95.40
28460;DHT22;32528;45.712;9.192;2023-02-24T12:00:38;15.60;95.70
28460;DHT22;32528;45.712;9.192;2023-02-24T12:02:59;15.70;95.90
28460;DHT22;32528;45.712;9.192;2023-02-24T12:05:23;15.80;95.80
28460;DHT22;32528;45.712;9.192;2023-02-24T12:07:31;15.70;94.60
28460;DHT22;32528;45.712;9.192;2023-02-24T12:09:42;15.70;94.80
28460;DHT22;32528;45.712;9.192;2023-02-24T12:11:58;15.80;94.70
28460;DHT22;32528;45.712;9.192;2023-02-24T12:16:41;16.00;94.70
28460;DHT22;32528;45.712;9.192;2023-02-24T12:18:51;16.10;94.50
28460;DHT22;32528;45.712;9.192;2023-02-24T12:20:59;16.10;94.50
28460;DHT22;32528;45.712;9.192;2023-02-24T12:23:28;16.00;94.60
28460;DHT22;32528;45.712;9.192;2023-02-24T12:25:46;15.90;94.40
28460;DHT22;32528;45.712;9.192;2023-02-24T12:33:07;15.60;94.40
28460;DHT22;32528;45.712;9.192;2023-02-24T12:35:32;15.60;94.60
28460;DHT22;32528;45.712;9.192;2023-02-24T12:44:43;16.20;93.80
28460;DHT22;32528;45.712;9.192;2023-02-24T12:46:53;16.30;93.50
28460;DHT22;32528;45.712;9.192;2023-02-24T12:55:50;16.40;92.90
28460;DHT22;32528;45.712;9.192;2023-02-24T12:58:05;16.60;92.70
28460;DHT22;32528;45.712;9.192;2023-02-24T13:12:10;17.40;90.90
28460;DHT22;32528;45.712;9.192;2023-02-24T13:14:18;17.40;91.20
28460;DHT22;32528;45.712;9.192;2023-02-24T13:16:30;17.10;91.50
28460;DHT22;32528;45.712;9.192;2023-02-24T13:18:33;16.90;91.30
28460;DHT22;32528;45.712;9.192;2023-02-24T13:20:37;16.60;91.20
28460;DHT22;32528;45.712;9.192;2023-02-24T13:22:41;16.40;91.50
28460;DHT22;32528;45.712;9.192;2023-02-24T13:24:56;16.30;91.70
28460;DHT22;32528;45.712;9.192;2023-02-24T13:27:30;16.10;92.10
28460;DHT22;32528;45.712;9.192;2023-02-24T13:29:45;16.00;91.80
28460;DHT22;32528;45.712;9.192;2023-02-24T13:31:50;15.70;92.10
28460;DHT22;32528;45.712;9.192;2023-02-24T13:33:51;15.60;92.50
28460;DHT22;32528;45.712;9.192;2023-02-24T13:36:26;15.50;92.70
28460;DHT22;32528;45.712;9.192;2023-02-24T13:38:36;15.40;92.30
28460;DHT22;32528;45.712;9.192;2023-02-24T13:40:38;15.60;92.40
28460;DHT22;32528;45.712;9.192;2023-02-24T13:42:39;15.60;92.60
28460;DHT22;32528;45.712;9.192;2023-02-24T13:47:31;15.80;92.30
28460;DHT22;32528;45.712;9.192;2023-02-24T13:51:59;16.00;91.60
28460;DHT22;32528;45.712;9.192;2023-02-24T13:56:43;16.40;91.40
28460;DHT22;32528;45.712;9.192;2023-02-24T14:01:14;16.50;91.00
28460;DHT22;32528;45.712;9.192;2023-02-24T14:03:23;16.40;90.90
28460;DHT22;32528;45.712;9.192;2023-02-24T14:05:28;16.20;91.00
28460;DHT22;32528;45.712;9.192;2023-02-24T14:07:35;16.30;91.40
28460;DHT22;32528;45.712;9.192;2023-02-24T14:09:39;16.20;91.20
28460;DHT22;32528;45.712;9.192;2023-02-24T14:11:42;16.30;91.30
28460;DHT22;32528;45.712;9.192;2023-02-24T14:13:49;16.40;91.00
28460;DHT22;32528;45.712;9.192;2023-02-24T14:15:50;16.40;90.90
28460;DHT22;32528;45.712;9.192;2023-02-24T14:18:00;16.40;90.60
28460;DHT22;32528;45.712;9.192;2023-02-24T14:22:18;16.00;91.30
28460;DHT22;32528;45.712;9.192;2023-02-24T14:24:19;16.00;91.60
28460;DHT22;32528;45.712;9.192;2023-02-24T14:26:20;16.00;91.40
28460;DHT22;32528;45.712;9.192;2023-02-24T14:28:24;16.00;91.50
28460;DHT22;32528;45.712;9.192;2023-02-24T14:30:38;16.00;91.50
28460;DHT22;32528;45.712;9.192;2023-02-24T14:32:41;15.90;91.20
28460;DHT22;32528;45.712;9.192;2023-02-24T14:34:45;15.90;91.40
28460;DHT22;32528;45.712;9.192;2023-02-24T14:36:49;15.90;91.40
28460;DHT22;32528;45.712;9.192;2023-02-24T14:39:11;15.90;91.40
28460;DHT22;32528;45.712;9.192;2023-02-24T14:41:21;15.80;91.20
28460;DHT22;32528;45.712;9.192;2023-02-24T14:43:22;15.70;91.60
28460;DHT22;32528;45.712;9.192;2023-02-24T14:45:26;15.60;91.50
28460;DHT22;32528;45.712;9.192;2023-02-24T14:47:27;15.70;91.60
28460;DHT22;32528;45.712;9.192;2023-02-24T14:49:31;15.80;91.50
28460;DHT22;32528;45.712;9.192;2023-02-24T14:51:33;15.70;91.50
28460;DHT22;32528;45.712;9.192;2023-02-24T14:53:40;15.70;91.60
28460;DHT22;32528;45.712;9.192;2023-02-24T14:55:46;15.80;91.60